sensor_id;sensor_type;location;lat;lon;timestamp;P1;durP1;ratioP1;P2;durP2;ratioP2
23543;SDS011;11950;51.230;4.012;2023-03-01T00:01:12;10.57;;;8.57;;
23543;SDS011;11950;51.230;4.012;2023-03-01T00:03:40;10.27;;;7.93;;
23543;SDS011;11950;51.230;4.012;2023-03-01T00:06:07;12.43;;;7.75;;
23543;SDS011;11950;51.230;4.012;2023-03-01T00:08:34;10.63;;;7.70;;
23543;SDS011;11950;51.230;4.012;2023-03-01T00:13:35;10.00;;;7.47;;
23543;SDS011;11950;51.230;4.012;2023-03-01T00:16:03;11.02;;;6.78;;
23543;SDS011;11950;51.230;4.012;2023-03-01T00:18:31;10.75;;;7.45;;
23543;SDS011;11950;51.230;4.012;2023-03-01T00:20:57;9.57;;;7.45;;
23543;SDS011;11950;51.230;4.012;2023-03-01T00:23:24;10.35;;;7.55;;
23543;SDS011;11950;51.230;4.012;2023-03-01T00:25:50;9.85;;;7.50;;
23543;SDS011;11950;51.230;4.012;2023-03-01T00:28:17;7.90;;;6.97;;
23543;SDS011;11950;51.230;4.012;2023-03-01T00:30:45;8.48;;;6.93;;
23543;SDS011;11950;51.230;4.012;2023-03-01T00:33:12;9.90;;;7.00;;
23543;SDS011;11950;51.230;4.012;2023-03-01T00:35:38;10.73;;;6.93;;
23543;SDS011;11950;51.230;4.012;2023-03-01T00:38:05;10.02;;;7.18;;
23543;SDS011;11950;51.230;4.012;2023-03-01T00:40:33;8.10;;;6.60;;
23543;SDS011;11950;51.230;4.012;2023-03-01T00:43:00;9.32;;;7.40;;
23543;SDS011;11950;51.230;4.012;2023-03-01T00:45:27;9.55;;;7.40;;
23543;SDS011;11950;51.230;4.012;2023-03-01T00:47:54;10.40;;;7.28;;
23543;SDS011;11950;51.230;4.012;2023-03-01T00:50:21;8.02;;;6.95;;
23543;SDS011;11950;51.230;4.012;2023-03-01T00:52:50;10.02;;;7.40;;
23543;SDS011;11950;51.230;4.012;2023-03-01T00:55:18;9.75;;;7.60;;
23543;SDS011;11950;51.230;4.012;2023-03-01T00:57:44;11.63;;;8.25;;
23543;SDS011;11950;51.230;4.012;2023-03-01T01:00:11;9.50;;;7.68;;
23543;SDS011;11950;51.230;4.012;2023-03-01T01:02:37;9.63;;;7.60;;
23543;SDS011;11950;51.230;4.012;2023-03-01T01:05:04;10.05;;;7.80;;
23543;SDS011;11950;51.230;4.012;2023-03-01T01:07:30;10.85;;;7.72;;
23543;SDS011;11950;51.230;4.012;2023-03-01T01:09:56;9.63;;;7.57;;
23543;SDS011;11950;51.230;4.012;2023-03-01T01:12:23;12.05;;;8.75;;
23543;SDS011;11950;51.230;4.012;2023-03-01T01:14:49;12.57;;;8.10;;
23543;SDS011;11950;51.230;4.012;2023-03-01T01:17:15;11.90;;;8.50;;
23543;SDS011;11950;51.230;4.012;2023-03-01T01:19:42;12.98;;;8.77;;
23543;SDS011;11950;51.230;4.012;2023-03-01T01:22:09;11.65;;;8.68;;
23543;SDS011;11950;51.230;4.012;2023-03-01T01:24:35;11.25;;;7.95;;
23543;SDS011;11950;51.230;4.012;2023-03-01T01:27:01;14.82;;;9.05;;
23543;SDS011;11950;51.230;4.012;2023-03-01T01:29:27;12.40;;;8.90;;
23543;SDS011;11950;51.230;4.012;2023-03-01T01:31:54;11.55;;;8.25;;
23543;SDS011;11950;51.230;4.012;2023-03-01T01:34:21;13.23;;;8.88;;
23543;SDS011;11950;51.230;4.012;2023-03-01T01:36:48;12.80;;;9.15;;
23543;SDS011;11950;51.230;4.012;2023-03-01T01:39:15;13.15;;;10.00;;
23543;SDS011;11950;51.230;4.012;2023-03-01T01:41:42;11.85;;;8.45;;
23543;SDS011;11950;51.230;4.012;2023-03-01T01:46:44;12.70;;;9.68;;
23543;SDS011;11950;51.230;4.012;2023-03-01T01:52:16;14.93;;;9.25;;
23543;SDS011;11950;51.230;4.012;2023-03-01T01:54:54;12.68;;;9.18;;
23543;SDS011;11950;51.230;4.012;2023-03-01T01:57:26;13.57;;;8.77;;
23543;SDS011;11950;51.230;4.012;2023-03-01T01:59:58;12.50;;;9.27;;
23543;SDS011;11950;51.230;4.012;2023-03-01T02:02:39;15.05;;;9.13;;
23543;SDS011;11950;51.230;4.012;2023-03-01T02:05:09;13.60;;;9.70;;
23543;SDS011;11950;51.230;4.012;2023-03-01T02:07:49;11.65;;;8.50;;
23543;SDS011;11950;51.230;4.012;2023-03-01T02:10:19;14.02;;;9.13;;
23543;SDS011;11950;51.230;4.012;2023-03-01T02:12:48;12.75;;;9.35;;
23543;SDS011;11950;51.230;4.012;2023-03-01T02:15:15;13.45;;;9.15;;
23543;SDS011;11950;51.230;4.012;2023-03-01T02:17:41;13.60;;;9.75;;
23543;SDS011;11950;51.230;4.012;2023-03-01T02:22:46;14.40;;;9.90;;
23543;SDS011;11950;51.230;4.012;2023-03-01T02:30:29;13.45;;;9.88;;
23543;SDS011;11950;51.230;4.012;2023-03-01T02:32:56;14.32;;;10.02;;
23543;SDS011;11950;51.230;4.012;2023-03-01T02:35:32;14.48;;;10.50;;
23543;SDS011;11950;51.230;4.012;2023-03-01T02:38:03;16.20;;;10.20;;
23543;SDS011;11950;51.230;4.012;2023-03-01T02:40:34;14.77;;;9.93;;
23543;SDS011;11950;51.230;4.012;2023-03-01T02:43:04;16.38;;;10.85;;
23543;SDS011;11950;51.230;4.012;2023-03-01T02:45:33;14.13;;;10.50;;
23543;SDS011;11950;51.230;4.012;2023-03-01T02:48:00;15.38;;;10.05;;
23543;SDS011;11950;51.230;4.012;2023-03-01T02:56:14;14.40;;;9.52;;
23543;SDS011;11950;51.230;4.012;2023-03-01T02:58:41;14.90;;;10.68;;
23543;SDS011;11950;51.230;4.012;2023-03-01T03:01:12;13.70;;;8.05;;
23543;SDS011;11950;51.230;4.012;2023-03-01T03:03:41;15.95;;;10.93;;
23543;SDS011;11950;51.230;4.012;2023-03-01T03:06:07;16.42;;;10.93;;
23543;SDS011;11950;51.230;4.012;2023-03-01T03:08:35;16.15;;;10.95;;
23543;SDS011;11950;51.230;4.012;2023-03-01T03:11:01;14.35;;;10.55;;
23543;SDS011;11950;51.230;4.012;2023-03-01T03:13:28;17.60;;;11.73;;
23543;SDS011;11950;51.230;4.012;2023-03-01T03:15:55;16.05;;;10.88;;
23543;SDS011;11950;51.230;4.012;2023-03-01T03:18:22;15.70;;;11.10;;
23543;SDS011;11950;51.230;4.012;2023-03-01T03:20:51;15.77;;;10.80;;
23543;SDS011;11950;51.230;4.012;2023-03-01T03:23:19;17.85;;;11.27;;
23543;SDS011;11950;51.230;4.012;2023-03-01T03:25:48;15.60;;;10.95;;
23543;SDS011;11950;51.230;4.012;2023-03-01T03:28:15;17.88;;;11.75;;
23543;SDS011;11950;51.230;4.012;2023-03-01T03:30:41;15.60;;;10.65;;
23543;SDS011;11950;51.230;4.012;2023-03-01T03:33:09;17.63;;;11.38;;
23543;SDS011;11950;51.230;4.012;2023-03-01T03:35:44;18.13;;;12.02;;
23543;SDS011;11950;51.230;4.012;2023-03-01T03:38:12;17.38;;;11.13;;
23543;SDS011;11950;51.230;4.012;2023-03-01T03:40:44;18.98;;;11.93;;
23543;SDS011;11950;51.230;4.012;2023-03-01T03:43:14;22.90;;;11.57;;
23543;SDS011;11950;51.230;4.012;2023-03-01T03:45:43;18.60;;;12.25;;
23543;SDS011;11950;51.230;4.012;2023-03-01T03:48:11;17.90;;;11.57;;
23543;SDS011;11950;51.230;4.012;2023-03-01T03:50:38;17.85;;;12.18;;
23543;SDS011;11950;51.230;4.012;2023-03-01T03:53:09;18.25;;;12.07;;
23543;SDS011;11950;51.230;4.012;2023-03-01T03:55:38;20.83;;;13.15;;
23543;SDS011;11950;51.230;4.012;2023-03-01T03:58:05;16.33;;;11.73;;
23543;SDS011;11950;51.230;4.012;2023-03-01T04:00:34;21.20;;;12.70;;
23543;SDS011;11950;51.230;4.012;2023-03-01T04:03:01;18.75;;;12.02;;
23543;SDS011;11950;51.230;4.012;2023-03-01T04:05:28;18.88;;;12.38;;
23543;SDS011;11950;51.230;4.012;2023-03-01T04:07:55;18.02;;;11.65;;
23543;SDS011;11950;51.230;4.012;2023-03-01T04:10:32;19.45;;;12.57;;
23543;SDS011;11950;51.230;4.012;2023-03-01T04:13:00;19.45;;;12.73;;
23543;SDS011;11950;51.230;4.012;2023-03-01T04:15:27;19.20;;;12.52;;
23543;SDS011;11950;51.230;4.012;2023-03-01T04:17:53;21.45;;;11.88;;
23543;SDS011;11950;51.230;4.012;2023-03-01T04:20:21;22.35;;;13.27;;
23543;SDS011;11950;51.230;4.012;2023-03-01T04:23:07;17.55;;;11.57;;
23543;SDS011;11950;51.230;4.012;2023-03-01T04:25:56;19.13;;;11.68;;
23543;SDS011;11950;51.230;4.012;2023-03-01T04:28:28;17.65;;;10.88;;
23543;SDS011;11950;51.230;4.012;2023-03-01T04:31:02;18.65;;;12.60;;
23543;SDS011;11950;51.230;4.012;2023-03-01T04:33:42;17.80;;;11.60;;
23543;SDS011;11950;51.230;4.012;2023-03-01T04:36:10;18.38;;;12.32;;
23543;SDS011;11950;51.230;4.012;2023-03-01T04:38:37;21.17;;;12.98;;
23543;SDS011;11950;51.230;4.012;2023-03-01T04:41:05;18.90;;;12.23;;
23543;SDS011;11950;51.230;4.012;2023-03-01T04:43:33;20.23;;;12.20;;
23543;SDS011;11950;51.230;4.012;2023-03-01T04:46:03;19.45;;;11.65;;
23543;SDS011;11950;51.230;4.012;2023-03-01T04:48:33;17.40;;;11.30;;
23543;SDS011;11950;51.230;4.012;2023-03-01T04:51:00;21.77;;;12.25;;
23543;SDS011;11950;51.230;4.012;2023-03-01T04:53:27;20.45;;;12.30;;
23543;SDS011;11950;51.230;4.012;2023-03-01T04:55:54;19.58;;;12.43;;
23543;SDS011;11950;51.230;4.012;2023-03-01T04:58:25;16.88;;;11.05;;
23543;SDS011;11950;51.230;4.012;2023-03-01T05:00:52;20.50;;;12.27;;
23543;SDS011;11950;51.230;4.012;2023-03-01T05:03:19;21.10;;;11.85;;
23543;SDS011;11950;51.230;4.012;2023-03-01T05:05:46;22.25;;;12.35;;
23543;SDS011;11950;51.230;4.012;2023-03-01T05:08:15;20.58;;;12.23;;
23543;SDS011;11950;51.230;4.012;2023-03-01T05:10:45;19.95;;;12.20;;
23543;SDS011;11950;51.230;4.012;2023-03-01T05:13:21;18.98;;;11.57;;
23543;SDS011;11950;51.230;4.012;2023-03-01T05:15:54;16.33;;;10.70;;
23543;SDS011;11950;51.230;4.012;2023-03-01T05:18:22;18.10;;;11.10;;
23543;SDS011;11950;51.230;4.012;2023-03-01T05:20:51;19.27;;;11.95;;
23543;SDS011;11950;51.230;4.012;2023-03-01T05:23:26;17.58;;;11.07;;
23543;SDS011;11950;51.230;4.012;2023-03-01T05:25:52;17.95;;;10.82;;
23543;SDS011;11950;51.230;4.012;2023-03-01T05:28:19;17.38;;;11.40;;
23543;SDS011;11950;51.230;4.012;2023-03-01T05:30:46;17.08;;;10.90;;
23543;SDS011;11950;51.230;4.012;2023-03-01T05:33:13;17.98;;;11.77;;
23543;SDS011;11950;51.230;4.012;2023-03-01T05:35:40;17.83;;;10.95;;
23543;SDS011;11950;51.230;4.012;2023-03-01T05:38:07;16.65;;;10.80;;
23543;SDS011;11950;51.230;4.012;2023-03-01T05:40:35;17.10;;;11.35;;
23543;SDS011;11950;51.230;4.012;2023-03-01T05:43:01;18.42;;;10.55;;
23543;SDS011;11950;51.230;4.012;2023-03-01T05:45:30;14.57;;;9.75;;
23543;SDS011;11950;51.230;4.012;2023-03-01T05:47:58;17.13;;;10.60;;
23543;SDS011;11950;51.230;4.012;2023-03-01T05:50:25;14.50;;;10.55;;
23543;SDS011;11950;51.230;4.012;2023-03-01T05:53:04;16.13;;;10.60;;
23543;SDS011;11950;51.230;4.012;2023-03-01T05:55:39;18.38;;;11.90;;
23543;SDS011;11950;51.230;4.012;2023-03-01T05:58:08;17.25;;;11.00;;
23543;SDS011;11950;51.230;4.012;2023-03-01T06:00:36;18.85;;;10.90;;
23543;SDS011;11950;51.230;4.012;2023-03-01T06:03:02;15.88;;;10.70;;
23543;SDS011;11950;51.230;4.012;2023-03-01T06:05:29;17.92;;;11.38;;
23543;SDS011;11950;51.230;4.012;2023-03-01T06:07:58;17.20;;;10.60;;
23543;SDS011;11950;51.230;4.012;2023-03-01T06:10:25;16.35;;;10.70;;
23543;SDS011;11950;51.230;4.012;2023-03-01T06:12:51;18.15;;;11.10;;
23543;SDS011;11950;51.230;4.012;2023-03-01T06:15:18;16.98;;;10.38;;
23543;SDS011;11950;51.230;4.012;2023-03-01T06:17:45;18.38;;;11.13;;
23543;SDS011;11950;51.230;4.012;2023-03-01T06:22:40;14.18;;;9.90;;
23543;SDS011;11950;51.230;4.012;2023-03-01T06:25:07;18.08;;;10.52;;
23543;SDS011;11950;51.230;4.012;2023-03-01T06:27:34;15.70;;;9.82;;
23543;SDS011;11950;51.230;4.012;2023-03-01T06:30:01;15.13;;;10.05;;
23543;SDS011;11950;51.230;4.012;2023-03-01T06:32:28;14.55;;;9.32;;
23543;SDS011;11950;51.230;4.012;2023-03-01T06:34:55;15.82;;;10.32;;
23543;SDS011;11950;51.230;4.012;2023-03-01T06:37:22;14.57;;;9.43;;
23543;SDS011;11950;51.230;4.012;2023-03-01T06:39:48;17.92;;;9.68;;
23543;SDS011;11950;51.230;4.012;2023-03-01T06:42:14;15.45;;;9.68;;
23543;SDS011;11950;51.230;4.012;2023-03-01T06:44:41;18.27;;;10.43;;
23543;SDS011;11950;51.230;4.012;2023-03-01T06:47:07;16.23;;;10.32;;
23543;SDS011;11950;51.230;4.012;2023-03-01T06:49:33;16.27;;;9.73;;
23543;SDS011;11950;51.230;4.012;2023-03-01T06:55:58;16.45;;;10.10;;
23543;SDS011;11950;51.230;4.012;2023-03-01T06:58:25;15.35;;;9.57;;
23543;SDS011;11950;51.230;4.012;2023-03-01T07:00:52;15.95;;;9.95;;
23543;SDS011;11950;51.230;4.012;2023-03-01T07:03:18;17.05;;;10.43;;
23543;SDS011;11950;51.230;4.012;2023-03-01T07:05:45;15.10;;;9.80;;
23543;SDS011;11950;51.230;4.012;2023-03-01T07:08:13;19.00;;;10.65;;
23543;SDS011;11950;51.230;4.012;2023-03-01T07:10:39;17.90;;;10.93;;
23543;SDS011;11950;51.230;4.012;2023-03-01T07:13:06;19.02;;;10.82;;
23543;SDS011;11950;51.230;4.012;2023-03-01T07:15:32;16.23;;;10.52;;
23543;SDS011;11950;51.230;4.012;2023-03-01T07:17:58;18.02;;;10.98;;
23543;SDS011;11950;51.230;4.012;2023-03-01T07:20:25;16.80;;;10.93;;
23543;SDS011;11950;51.230;4.012;2023-03-01T07:22:51;18.00;;;10.38;;
23543;SDS011;11950;51.230;4.012;2023-03-01T07:25:19;15.93;;;10.23;;
23543;SDS011;11950;51.230;4.012;2023-03-01T07:27:49;16.70;;;10.65;;
23543;SDS011;11950;51.230;4.012;2023-03-01T07:30:17;16.40;;;10.52;;
23543;SDS011;11950;51.230;4.012;2023-03-01T07:32:43;18.70;;;11.15;;
23543;SDS011;11950;51.230;4.012;2023-03-01T07:35:11;17.10;;;10.70;;
23543;SDS011;11950;51.230;4.012;2023-03-01T07:37:37;14.80;;;9.80;;
23543;SDS011;11950;51.230;4.012;2023-03-01T07:40:03;17.13;;;10.63;;
23543;SDS011;11950;51.230;4.012;2023-03-01T07:42:30;15.18;;;10.15;;
23543;SDS011;11950;51.230;4.012;2023-03-01T07:44:57;18.13;;;10.18;;
23543;SDS011;11950;51.230;4.012;2023-03-01T07:47:23;14.45;;;9.23;;
23543;SDS011;11950;51.230;4.012;2023-03-01T07:49:49;12.13;;;9.32;;
23543;SDS011;11950;51.230;4.012;2023-03-01T07:52:15;13.10;;;8.95;;
23543;SDS011;11950;51.230;4.012;2023-03-01T07:59:16;10.65;;;8.40;;
23543;SDS011;11950;51.230;4.012;2023-03-01T08:01:42;12.38;;;8.43;;
23543;SDS011;11950;51.230;4.012;2023-03-01T08:04:09;11.27;;;8.75;;
23543;SDS011;11950;51.230;4.012;2023-03-01T08:06:36;10.52;;;8.23;;
23543;SDS011;11950;51.230;4.012;2023-03-01T08:09:02;10.82;;;8.15;;
23543;SDS011;11950;51.230;4.012;2023-03-01T08:11:29;9.40;;;8.25;;
23543;SDS011;11950;51.230;4.012;2023-03-01T08:13:55;14.45;;;9.10;;
23543;SDS011;11950;51.230;4.012;2023-03-01T08:16:23;9.65;;;7.80;;
23543;SDS011;11950;51.230;4.012;2023-03-01T08:18:49;11.32;;;8.30;;
23543;SDS011;11950;51.230;4.012;2023-03-01T08:21:16;10.65;;;7.97;;
23543;SDS011;11950;51.230;4.012;2023-03-01T08:23:43;12.48;;;8.57;;
23543;SDS011;11950;51.230;4.012;2023-03-01T08:26:13;13.50;;;9.45;;
23543;SDS011;11950;51.230;4.012;2023-03-01T08:28:42;12.20;;;8.98;;
23543;SDS011;11950;51.230;4.012;2023-03-01T08:31:26;12.20;;;8.60;;
23543;SDS011;11950;51.230;4.012;2023-03-01T08:33:56;12.68;;;8.68;;
23543;SDS011;11950;51.230;4.012;2023-03-01T08:36:26;11.38;;;8.85;;
23543;SDS011;11950;51.230;4.012;2023-03-01T08:38:53;10.73;;;8.82;;
23543;SDS011;11950;51.230;4.012;2023-03-01T08:41:20;10.93;;;8.85;;
23543;SDS011;11950;51.230;4.012;2023-03-01T08:43:46;11.90;;;8.88;;
23543;SDS011;11950;51.230;4.012;2023-03-01T08:46:13;14.13;;;9.35;;
23543;SDS011;11950;51.230;4.012;2023-03-01T08:48:39;11.63;;;8.93;;
23543;SDS011;11950;51.230;4.012;2023-03-01T08:51:09;13.93;;;9.27;;
23543;SDS011;11950;51.230;4.012;2023-03-01T08:53:37;11.32;;;8.52;;
23543;SDS011;11950;51.230;4.012;2023-03-01T08:56:06;12.50;;;8.85;;
23543;SDS011;11950;51.230;4.012;2023-03-01T08:58:33;11.05;;;8.07;;
23543;SDS011;11950;51.230;4.012;2023-03-01T09:01:00;13.57;;;8.85;;
23543;SDS011;11950;51.230;4.012;2023-03-01T09:03:26;11.38;;;8.27;;
23543;SDS011;11950;51.230;4.012;2023-03-01T09:05:53;10.30;;;8.02;;
23543;SDS011;11950;51.230;4.012;2023-03-01T09:08:26;13.93;;;7.47;;
23543;SDS011;11950;51.230;4.012;2023-03-01T09:10:52;10.98;;;7.60;;
23543;SDS011;11950;51.230;4.012;2023-03-01T09:13:18;8.85;;;7.20;;
23543;SDS011;11950;51.230;4.012;2023-03-01T09:15:45;10.05;;;6.55;;
23543;SDS011;11950;51.230;4.012;2023-03-01T09:18:11;10.32;;;7.13;;
23543;SDS011;11950;51.230;4.012;2023-03-01T09:20:37;10.82;;;7.13;;
23543;SDS011;11950;51.230;4.012;2023-03-01T09:23:04;8.73;;;6.85;;
23543;SDS011;11950;51.230;4.012;2023-03-01T09:25:30;8.88;;;7.22;;
23543;SDS011;11950;51.230;4.012;2023-03-01T09:27:56;10.15;;;6.80;;
23543;SDS011;11950;51.230;4.012;2023-03-01T09:30:22;9.63;;;7.07;;
23543;SDS011;11950;51.230;4.012;2023-03-01T09:32:49;9.52;;;6.65;;
23543;SDS011;11950;51.230;4.012;2023-03-01T09:35:16;10.40;;;6.55;;
23543;SDS011;11950;51.230;4.012;2023-03-01T09:37:42;9.43;;;7.00;;
23543;SDS011;11950;51.230;4.012;2023-03-01T09:40:12;10.30;;;7.38;;
23543;SDS011;11950;51.230;4.012;2023-03-01T09:42:55;8.13;;;6.30;;
23543;SDS011;11950;51.230;4.012;2023-03-01T09:48:03;10.95;;;6.70;;
23543;SDS011;11950;51.230;4.012;2023-03-01T09:50:37;11.20;;;7.03;;
23543;SDS011;11950;51.230;4.012;2023-03-01T09:53:08;9.98;;;5.85;;
23543;SDS011;11950;51.230;4.012;2023-03-01T10:00:57;8.55;;;6.22;;
23543;SDS011;11950;51.230;4.012;2023-03-01T10:03:32;8.60;;;6.30;;
23543;SDS011;11950;51.230;4.012;2023-03-01T10:08:37;8.70;;;5.82;;
23543;SDS011;11950;51.230;4.012;2023-03-01T10:11:26;8.10;;;6.03;;
23543;SDS011;11950;51.230;4.012;2023-03-01T10:16:57;7.80;;;5.90;;
23543;SDS011;11950;51.230;4.012;2023-03-01T10:22:19;8.20;;;5.95;;
23543;SDS011;11950;51.230;4.012;2023-03-01T10:24:54;7.45;;;5.60;;
23543;SDS011;11950;51.230;4.012;2023-03-01T10:27:24;10.82;;;5.80;;
23543;SDS011;11950;51.230;4.012;2023-03-01T10:32:39;6.85;;;5.05;;
23543;SDS011;11950;51.230;4.012;2023-03-01T10:38:00;7.32;;;5.40;;
23543;SDS011;11950;51.230;4.012;2023-03-01T10:40:29;7.15;;;5.45;;
23543;SDS011;11950;51.230;4.012;2023-03-01T10:43:00;5.85;;;5.07;;
23543;SDS011;11950;51.230;4.012;2023-03-01T10:48:08;7.20;;;5.47;;
23543;SDS011;11950;51.230;4.012;2023-03-01T10:50:39;6.95;;;5.45;;
23543;SDS011;11950;51.230;4.012;2023-03-01T10:53:16;6.95;;;4.80;;
23543;SDS011;11950;51.230;4.012;2023-03-01T10:55:47;4.50;;;4.10;;
23543;SDS011;11950;51.230;4.012;2023-03-01T10:58:23;7.18;;;4.80;;
23543;SDS011;11950;51.230;4.012;2023-03-01T11:00:51;6.35;;;4.85;;
23543;SDS011;11950;51.230;4.012;2023-03-01T11:03:21;7.15;;;5.47;;
23543;SDS011;11950;51.230;4.012;2023-03-01T11:05:54;5.38;;;4.43;;
23543;SDS011;11950;51.230;4.012;2023-03-01T11:11:08;5.05;;;4.30;;
23543;SDS011;11950;51.230;4.012;2023-03-01T11:16:36;7.05;;;4.32;;
23543;SDS011;11950;51.230;4.012;2023-03-01T11:21:34;8.55;;;4.68;;
23543;SDS011;11950;51.230;4.012;2023-03-01T11:24:16;7.82;;;4.45;;
23543;SDS011;11950;51.230;4.012;2023-03-01T11:26:49;7.18;;;4.70;;
23543;SDS011;11950;51.230;4.012;2023-03-01T11:32:08;7.50;;;4.45;;
23543;SDS011;11950;51.230;4.012;2023-03-01T11:40:39;5.13;;;3.90;;
23543;SDS011;11950;51.230;4.012;2023-03-01T11:43:19;8.45;;;4.57;;
23543;SDS011;11950;51.230;4.012;2023-03-01T11:54:09;5.32;;;4.43;;
23543;SDS011;11950;51.230;4.012;2023-03-01T11:56:47;7.28;;;4.93;;
23543;SDS011;11950;51.230;4.012;2023-03-01T12:08:35;6.35;;;4.97;;
23543;SDS011;11950;51.230;4.012;2023-03-01T12:17:09;4.60;;;3.65;;
23543;SDS011;11950;51.230;4.012;2023-03-01T12:22:43;6.28;;;4.63;;
23543;SDS011;11950;51.230;4.012;2023-03-01T12:25:39;7.85;;;4.72;;
23543;SDS011;11950;51.230;4.012;2023-03-01T12:28:31;8.35;;;5.43;;
23543;SDS011;11950;51.230;4.012;2023-03-01T12:44:49;7.22;;;5.18;;
23543;SDS011;11950;51.230;4.012;2023-03-01T12:52:56;9.80;;;5.53;;
23543;SDS011;11950;51.230;4.012;2023-03-01T12:55:31;9.38;;;5.95;;
23543;SDS011;11950;51.230;4.012;2023-03-01T13:00:41;7.93;;;5.57;;
23543;SDS011;11950;51.230;4.012;2023-03-01T13:11:00;8.88;;;6.50;;
23543;SDS011;11950;51.230;4.012;2023-03-01T13:13:28;8.00;;;6.20;;
23543;SDS011;11950;51.230;4.012;2023-03-01T13:15:56;7.75;;;5.95;;
23543;SDS011;11950;51.230;4.012;2023-03-01T13:18:26;7.97;;;5.88;;
23543;SDS011;11950;51.230;4.012;2023-03-01T13:20:55;8.00;;;6.00;;
23543;SDS011;11950;51.230;4.012;2023-03-01T13:31:04;7.65;;;5.95;;
23543;SDS011;11950;51.230;4.012;2023-03-01T13:36:01;10.25;;;6.38;;
23543;SDS011;11950;51.230;4.012;2023-03-01T13:41:07;8.25;;;5.80;;
23543;SDS011;11950;51.230;4.012;2023-03-01T13:43:37;8.98;;;6.00;;
23543;SDS011;11950;51.230;4.012;2023-03-01T13:46:16;8.27;;;5.97;;
23543;SDS011;11950;51.230;4.012;2023-03-01T13:48:51;10.70;;;6.78;;
23543;SDS011;11950;51.230;4.012;2023-03-01T13:51:21;8.90;;;6.40;;
23543;SDS011;11950;51.230;4.012;2023-03-01T13:53:51;9.70;;;6.33;;
23543;SDS011;11950;51.230;4.012;2023-03-01T13:56:23;8.18;;;5.53;;
23543;SDS011;11950;51.230;4.012;2023-03-01T14:01:24;7.72;;;5.55;;
23543;SDS011;11950;51.230;4.012;2023-03-01T14:03:51;7.10;;;5.38;;
23543;SDS011;11950;51.230;4.012;2023-03-01T14:06:20;8.10;;;5.28;;
23543;SDS011;11950;51.230;4.012;2023-03-01T14:08:50;6.93;;;5.57;;
23543;SDS011;11950;51.230;4.012;2023-03-01T14:16:40;8.40;;;5.80;;
23543;SDS011;11950;51.230;4.012;2023-03-01T14:19:15;7.18;;;5.38;;
23543;SDS011;11950;51.230;4.012;2023-03-01T14:21:58;7.30;;;5.47;;
23543;SDS011;11950;51.230;4.012;2023-03-01T14:24:52;6.65;;;5.13;;
23543;SDS011;11950;51.230;4.012;2023-03-01T14:27:38;8.13;;;5.40;;
23543;SDS011;11950;51.230;4.012;2023-03-01T14:30:21;7.50;;;5.35;;
23543;SDS011;11950;51.230;4.012;2023-03-01T14:32:52;8.15;;;5.82;;
23543;SDS011;11950;51.230;4.012;2023-03-01T14:35:29;7.10;;;5.88;;
23543;SDS011;11950;51.230;4.012;2023-03-01T14:37:57;8.70;;;6.30;;
23543;SDS011;11950;51.230;4.012;2023-03-01T14:43:00;9.95;;;5.78;;
23543;SDS011;11950;51.230;4.012;2023-03-01T14:45:35;7.90;;;5.60;;
23543;SDS011;11950;51.230;4.012;2023-03-01T14:48:02;7.05;;;5.90;;
23543;SDS011;11950;51.230;4.012;2023-03-01T14:50:32;7.45;;;6.20;;
23543;SDS011;11950;51.230;4.012;2023-03-01T14:53:04;6.88;;;6.15;;
23543;SDS011;11950;51.230;4.012;2023-03-01T14:58:05;9.77;;;5.90;;
23543;SDS011;11950;51.230;4.012;2023-03-01T15:00:35;6.68;;;5.80;;
23543;SDS011;11950;51.230;4.012;2023-03-01T15:03:05;8.40;;;6.60;;
23543;SDS011;11950;51.230;4.012;2023-03-01T15:05:53;6.93;;;5.93;;
23543;SDS011;11950;51.230;4.012;2023-03-01T15:08:24;10.20;;;6.47;;
23543;SDS011;11950;51.230;4.012;2023-03-01T15:10:56;10.55;;;6.60;;
23543;SDS011;11950;51.230;4.012;2023-03-01T15:13:23;9.93;;;6.80;;
23543;SDS011;11950;51.230;4.012;2023-03-01T15:15:51;9.85;;;6.28;;
23543;SDS011;11950;51.230;4.012;2023-03-01T15:18:28;9.77;;;6.60;;
23543;SDS011;11950;51.230;4.012;2023-03-01T15:20:56;10.38;;;6.47;;
23543;SDS011;11950;51.230;4.012;2023-03-01T15:23:36;8.73;;;6.40;;
23543;SDS011;11950;51.230;4.012;2023-03-01T15:26:04;8.82;;;7.40;;
23543;SDS011;11950;51.230;4.012;2023-03-01T15:28:32;9.60;;;6.75;;
23543;SDS011;11950;51.230;4.012;2023-03-01T15:31:02;8.00;;;6.83;;
23543;SDS011;11950;51.230;4.012;2023-03-01T15:33:37;7.50;;;6.13;;
23543;SDS011;11950;51.230;4.012;2023-03-01T15:36:47;8.82;;;6.32;;
23543;SDS011;11950;51.230;4.012;2023-03-01T15:38:56;7.10;;;5.95;;
23543;SDS011;11950;51.230;4.012;2023-03-01T15:43:52;8.15;;;6.40;;
23543;SDS011;11950;51.230;4.012;2023-03-01T15:46:23;8.65;;;6.85;;
23543;SDS011;11950;51.230;4.012;2023-03-01T15:49:02;10.45;;;7.18;;
23543;SDS011;11950;51.230;4.012;2023-03-01T15:51:37;9.82;;;7.20;;
23543;SDS011;11950;51.230;4.012;2023-03-01T15:54:05;9.02;;;7.07;;
23543;SDS011;11950;51.230;4.012;2023-03-01T15:59:12;8.32;;;6.65;;
23543;SDS011;11950;51.230;4.012;2023-03-01T16:01:40;10.80;;;7.25;;
23543;SDS011;11950;51.230;4.012;2023-03-01T16:04:08;8.30;;;6.88;;
23543;SDS011;11950;51.230;4.012;2023-03-01T16:06:38;9.35;;;6.70;;
23543;SDS011;11950;51.230;4.012;2023-03-01T16:09:05;9.13;;;6.90;;
23543;SDS011;11950;51.230;4.012;2023-03-01T16:11:31;9.55;;;6.88;;
23543;SDS011;11950;51.230;4.012;2023-03-01T16:13:59;8.98;;;6.55;;
23543;SDS011;11950;51.230;4.012;2023-03-01T16:16:25;7.53;;;6.30;;
23543;SDS011;11950;51.230;4.012;2023-03-01T16:18:52;9.48;;;6.55;;
23543;SDS011;11950;51.230;4.012;2023-03-01T16:21:22;8.07;;;6.97;;
23543;SDS011;11950;51.230;4.012;2023-03-01T16:23:50;8.23;;;6.43;;
23543;SDS011;11950;51.230;4.012;2023-03-01T16:26:17;9.98;;;7.15;;
23543;SDS011;11950;51.230;4.012;2023-03-01T16:28:44;10.18;;;6.93;;
23543;SDS011;11950;51.230;4.012;2023-03-01T16:31:12;11.00;;;7.00;;
23543;SDS011;11950;51.230;4.012;2023-03-01T16:33:42;7.82;;;6.35;;
23543;SDS011;11950;51.230;4.012;2023-03-01T16:36:16;8.52;;;6.38;;
23543;SDS011;11950;51.230;4.012;2023-03-01T16:38:44;9.80;;;6.60;;
23543;SDS011;11950;51.230;4.012;2023-03-01T16:41:14;9.10;;;7.07;;
23543;SDS011;11950;51.230;4.012;2023-03-01T16:43:42;10.27;;;6.32;;
23543;SDS011;11950;51.230;4.012;2023-03-01T16:46:12;8.38;;;6.47;;
23543;SDS011;11950;51.230;4.012;2023-03-01T16:48:40;7.57;;;6.32;;
23543;SDS011;11950;51.230;4.012;2023-03-01T16:51:09;8.57;;;6.63;;
23543;SDS011;11950;51.230;4.012;2023-03-01T16:53:39;9.30;;;6.10;;
23543;SDS011;11950;51.230;4.012;2023-03-01T16:56:08;10.45;;;7.15;;
23543;SDS011;11950;51.230;4.012;2023-03-01T16:58:36;8.60;;;6.57;;
23543;SDS011;11950;51.230;4.012;2023-03-01T17:01:17;8.55;;;6.25;;
23543;SDS011;11950;51.230;4.012;2023-03-01T17:03:45;10.85;;;6.57;;
23543;SDS011;11950;51.230;4.012;2023-03-01T17:06:14;8.95;;;6.35;;
23543;SDS011;11950;51.230;4.012;2023-03-01T17:08:42;8.55;;;6.68;;
23543;SDS011;11950;51.230;4.012;2023-03-01T17:11:10;8.55;;;6.50;;
23543;SDS011;11950;51.230;4.012;2023-03-01T17:13:41;7.75;;;6.45;;
23543;SDS011;11950;51.230;4.012;2023-03-01T17:16:09;9.93;;;6.20;;
23543;SDS011;11950;51.230;4.012;2023-03-01T17:18:37;7.80;;;6.20;;
23543;SDS011;11950;51.230;4.012;2023-03-01T17:21:04;9.30;;;6.78;;
23543;SDS011;11950;51.230;4.012;2023-03-01T17:23:31;7.45;;;5.93;;
23543;SDS011;11950;51.230;4.012;2023-03-01T17:25:58;6.30;;;5.68;;
23543;SDS011;11950;51.230;4.012;2023-03-01T17:28:25;7.28;;;5.65;;
23543;SDS011;11950;51.230;4.012;2023-03-01T17:30:53;8.95;;;5.78;;